Time;durP1;ratioP1;P1;durP2;ratioP2;P2;SDS_P1;SDS_P2;PMS_P1;PMS_P2;Temp;Humidity;BMP_temperature;BMP_pressure;BME280_temperature;BME280_humidity;BME280_pressure;Samples;Min_cycle;Max_cycle;Signal;HPM_P1;HPM_P2
2022/05/01 00:00:38;;;;;;;;;23.25;18.00;;;;;9.17;61.82;102537.88;5071805;28;11250;-62
2022/05/01 00:03:06;;;;;;;;;14.25;14.25;;;;;9.17;62.24;102543.25;5056686;28;11244;-63
2022/05/01 00:05:33;;;;;;;;;11.50;11.50;;;;;9.15;61.92;102538.03;5061306;28;11133;-60
2022/05/01 00:07:59;;;;;;;;;13.50;12.75;;;;;9.14;62.31;102547.06;5055555;28;11228;-64
2022/05/01 00:10:26;;;;;;;;;13.00;12.50;;;;;9.11;62.46;102541.13;5052370;28;11480;-65
2022/05/01 00:12:52;;;;;;;;;15.75;14.75;;;;;9.08;62.17;102536.06;5068565;28;11963;-60
2022/05/01 00:15:19;;;;;;;;;15.50;14.25;;;;;9.07;62.76;102537.03;5068423;28;11479;-63
2022/05/01 00:17:45;;;;;;;;;16.75;13.50;;;;;9.04;62.16;102538.19;5071126;28;11253;-62
2022/05/01 00:20:14;;;;;;;;;18.00;16.00;;;;;9.00;62.37;102536.75;5071804;28;11160;-63
2022/05/01 00:22:40;;;;;;;;;23.25;15.25;;;;;8.98;62.44;102535.19;5053016;28;11479;-63
2022/05/01 00:25:07;;;;;;;;;13.50;13.50;;;;;8.94;62.84;102531.94;5051461;28;11303;-63
2022/05/01 00:27:34;;;;;;;;;20.75;17.25;;;;;8.91;62.88;102535.78;5053045;28;11177;-61
2022/05/01 00:30:01;;;;;;;;;16.25;15.75;;;;;8.88;62.87;102532.53;5067781;28;11232;-63
2022/05/01 00:36:25;;;;;;;;;19.25;17.75;;;;;8.84;63.16;102521.22;5071172;28;11345;-64
2022/05/01 00:37:59;;;;;;;;;19.25;18.00;;;;;8.77;62.94;102521.94;5050850;28;11577;-63
2022/05/01 00:40:25;;;;;;;;;21.75;19.25;;;;;8.70;62.63;102518.94;5049582;28;11481;-63
2022/05/01 00:42:52;;;;;;;;;12.75;12.25;;;;;8.69;62.91;102519.09;5062677;28;11459;-64
2022/05/01 00:45:19;;;;;;;;;15.00;14.75;;;;;8.66;63.55;102522.91;5056236;28;11300;-63
2022/05/01 00:47:46;;;;;;;;;17.00;16.75;;;;;8.63;62.93;102524.03;5064491;28;11560;-64
2022/05/01 00:50:12;;;;;;;;;19.25;17.00;;;;;8.61;62.71;102526.00;5050945;28;11171;-62
2022/05/01 00:52:39;;;;;;;;;19.50;17.50;;;;;8.56;62.88;102506.78;5050714;28;11497;-63
2022/05/01 00:55:06;;;;;;;;;23.25;20.75;;;;;8.55;63.28;102512.31;5064767;28;11548;-63
2022/05/01 00:57:33;;;;;;;;;24.75;23.50;;;;;8.54;63.48;102511.44;5070786;28;11489;-61
2022/05/01 01:00:00;;;;;;;;;21.50;17.25;;;;;8.50;63.31;102507.34;5055611;28;11614;-61
2022/05/01 01:02:26;;;;;;;;;18.00;17.00;;;;;8.50;63.25;102507.34;5050887;28;11482;-62
2022/05/01 01:04:53;;;;;;;;;21.75;20.75;;;;;8.47;62.91;102507.66;5064142;28;11214;-63
2022/05/01 01:07:19;;;;;;;;;16.25;13.25;;;;;8.44;63.49;102507.06;5069466;28;11506;-59
2022/05/01 01:09:45;;;;;;;;;21.75;17.50;;;;;8.41;63.35;102503.66;5066781;28;11474;-63
2022/05/01 01:15:10;;;;;;;;;19.50;16.50;;;;;8.37;62.83;102499.56;5070664;28;11485;-64
2022/05/01 01:17:40;;;;;;;;;18.00;14.25;;;;;8.34;63.13;102498.97;5053835;28;12200;-63
2022/05/01 01:20:11;;;;;;;;;17.75;15.50;;;;;8.30;63.17;102506.44;5050373;28;11466;-64
2022/05/01 01:22:49;;;;;;;;;20.25;18.00;;;;;8.27;63.22;102508.56;5063970;28;12223;-65
2022/05/01 01:25:18;;;;;;;;;17.25;15.75;;;;;8.21;63.17;102504.59;5060111;28;11556;-64
2022/05/01 01:27:45;;;;;;;;;21.75;21.50;;;;;8.17;63.60;102497.81;5069506;28;11529;-63
2022/05/01 01:32:58;;;;;;;;;23.25;20.50;;;;;8.11;63.69;102491.16;5050939;28;11498;-64
2022/05/01 01:35:26;;;;;;;;;20.00;18.50;;;;;8.12;64.00;102492.00;5049956;28;11528;-64
2022/05/01 01:37:54;;;;;;;;;21.75;18.00;;;;;8.11;64.13;102491.16;5063192;28;11472;-64
2022/05/01 01:40:28;;;;;;;;;21.75;19.25;;;;;8.09;63.44;102495.81;5065097;28;11579;-62
2022/05/01 01:42:57;;;;;;;;;20.25;20.00;;;;;8.08;64.16;102493.28;5068778;28;11588;-65
2022/05/01 01:45:28;;;;;;;;;22.50;20.75;;;;;8.07;63.81;102488.91;5070265;28;11463;-64
2022/05/01 01:48:07;;;;;;;;;22.75;16.75;;;;;8.05;63.72;102497.06;5050922;28;11616;-65
2022/05/01 01:50:34;;;;;;;;;25.25;22.25;;;;;8.03;63.82;102491.00;5053533;28;11455;-68
2022/05/01 01:53:00;;;;;;;;;20.75;19.50;;;;;8.00;64.00;102498.47;5056852;28;12212;-62
2022/05/01 01:55:27;;;;;;;;;21.25;17.00;;;;;7.97;63.63;102496.91;5069571;28;12195;-62
2022/05/01 01:57:53;;;;;;;;;17.75;17.75;;;;;7.96;63.91;102503.25;5059436;28;11465;-65
2022/05/01 02:00:19;;;;;;;;;20.75;19.75;;;;;7.93;64.06;102496.31;5070124;28;11469;-64
2022/05/01 02:02:47;;;;;;;;;23.75;22.00;;;;;7.90;63.82;102488.56;5068590;28;11494;-63
2022/05/01 02:05:14;;;;;;;;;19.75;18.75;;;;;7.87;63.70;102496.03;5070108;28;11557;-60
2022/05/01 02:07:41;;;;;;;;;23.50;15.75;;;;;7.83;64.06;102487.41;5053652;28;11500;-65
2022/05/01 02:10:08;;;;;;;;;25.00;22.75;;;;;7.82;63.94;102491.09;5066883;28;11542;-62
2022/05/01 02:12:34;;;;;;;;;16.75;16.50;;;;;7.81;63.82;102492.03;5070683;28;11513;-64
2022/05/01 02:15:01;;;;;;;;;20.00;17.00;;;;;7.79;63.66;102483.31;5073857;28;11457;-62
2022/05/01 02:17:27;;;;;;;;;18.75;18.00;;;;;7.80;63.75;102487.66;5072200;28;11467;-64
2022/05/01 02:19:54;;;;;;;;;24.75;20.25;;;;;7.78;63.70;102484.28;5073634;28;11463;-64
2022/05/01 02:22:21;;;;;;;;;22.00;19.75;;;;;7.76;63.89;102494.28;5072588;28;11473;-63
2022/05/01 02:24:48;;;;;;;;;22.00;17.50;;;;;7.74;63.74;102490.91;5069475;28;12343;-65
2022/05/01 02:27:15;;;;;;;;;21.50;16.75;;;;;7.73;63.81;102486.50;5067931;28;11542;-62
2022/05/01 02:29:43;;;;;;;;;28.00;23.00;;;;;7.71;64.25;102485.81;5070552;28;11455;-63
2022/05/01 02:32:10;;;;;;;;;17.25;16.50;;;;;7.70;63.89;102481.44;5072724;28;12248;-64
2022/05/01 02:34:36;;;;;;;;;21.00;18.50;;;;;7.67;64.06;102477.19;5073493;28;11535;-61
2022/05/01 02:37:03;;;;;;;;;30.00;20.25;;;;;7.65;64.04;102479.13;5071935;28;11518;-62
2022/05/01 02:39:29;;;;;;;;;25.25;22.25;;;;;7.64;63.92;102477.44;5073488;28;11457;-61
2022/05/01 02:41:56;;;;;;;;;29.00;22.50;;;;;7.61;64.13;102477.72;5062541;28;12287;-61
2022/05/01 02:44:22;;;;;;;;;23.75;18.00;;;;;7.60;63.86;102470.66;5054326;28;11469;-64
2022/05/01 02:46:49;;;;;;;;;19.50;17.00;;;;;7.60;63.99;102472.50;5072338;28;11476;-64
2022/05/01 02:49:15;;;;;;;;;25.50;22.00;;;;;7.58;64.38;102477.16;5073341;28;11473;-64
2022/05/01 02:51:42;;;;;;;;;18.75;18.75;;;;;7.55;63.96;102478.28;5071148;28;11474;-61
2022/05/01 02:54:08;;;;;;;;;14.75;14.25;;;;;7.54;64.25;102467.69;5072905;28;11490;-64
2022/05/01 02:56:35;;;;;;;;;22.25;20.75;;;;;7.52;64.15;102465.13;5064648;28;11472;-64
2022/05/01 02:59:02;;;;;;;;;23.00;20.00;;;;;7.50;64.36;102471.63;5065150;28;11465;-64
2022/05/01 03:01:31;;;;;;;;;28.25;23.50;;;;;7.49;64.14;102480.63;5065954;28;11536;-63
2022/05/01 03:03:58;;;;;;;;;20.25;16.50;;;;;7.47;64.06;102464.69;5071066;28;11490;-64
2022/05/01 03:06:24;;;;;;;;;25.75;23.75;;;;;7.46;63.69;102456.81;5071555;28;11532;-64
2022/05/01 03:08:51;;;;;;;;;28.75;21.50;;;;;7.42;64.53;102462.41;5067387;28;12249;-64
2022/05/01 03:11:18;;;;;;;;;25.00;19.50;;;;;7.41;64.40;102454.50;5072241;28;12145;-62
2022/05/01 03:13:45;;;;;;;;;23.00;19.00;;;;;7.38;64.04;102460.16;5072521;28;11476;-62
2022/05/01 03:16:11;;;;;;;;;21.75;18.00;;;;;7.37;64.53;102459.31;5068093;28;12325;-64
2022/05/01 03:24:08;;;;;;;;;25.75;20.00;;;;;7.32;64.21;102455.31;5071674;28;11478;-60
2022/05/01 03:26:34;;;;;;;;;17.50;17.50;;;;;7.32;64.26;102455.31;5071916;28;11449;-64
2022/05/01 03:29:01;;;;;;;;;17.75;16.50;;;;;7.30;63.96;102460.81;5072276;28;11556;-64
2022/05/01 03:31:28;;;;;;;;;17.50;16.75;;;;;7.28;64.38;102454.72;5070517;28;11517;-65
2022/05/01 03:33:55;;;;;;;;;37.50;24.00;;;;;7.27;64.65;102453.03;5070721;28;11475;-64
2022/05/01 03:36:21;;;;;;;;;29.75;20.25;;;;;7.25;64.51;102446.97;5070009;28;11541;-64
2022/05/01 03:38:47;;;;;;;;;23.75;20.50;;;;;7.23;64.16;102450.75;5066342;28;12311;-64
2022/05/01 03:41:16;;;;;;;;;22.75;19.75;;;;;7.21;64.51;102453.56;5071545;28;11473;-64
2022/05/01 03:43:43;;;;;;;;;29.25;23.00;;;;;7.20;64.13;102449.19;5061017;28;11510;-63
2022/05/01 03:46:10;;;;;;;;;23.25;20.25;;;;;7.18;64.79;102446.66;5056414;28;11475;-59
2022/05/01 03:48:36;;;;;;;;;24.25;22.00;;;;;7.18;64.39;102443.13;5071957;28;11464;-63
2022/05/01 03:51:03;;;;;;;;;31.75;24.50;;;;;7.18;64.18;102445.81;5068696;28;11506;-64
2022/05/01 03:53:29;;;;;;;;;16.50;14.75;;;;;7.15;64.41;102444.22;5061916;28;11574;-64
2022/05/01 03:55:56;;;;;;;;;27.00;23.25;;;;;7.13;64.50;102448.88;5060674;28;11550;-61
2022/05/01 03:58:23;;;;;;;;;22.75;19.50;;;;;7.12;64.87;102443.63;5051631;28;11563;-63
2022/05/01 04:00:50;;;;;;;;;24.25;21.50;;;;;7.11;64.81;102440.13;5052576;28;11502;-64
2022/05/01 04:03:17;;;;;;;;;27.00;23.00;;;;;7.10;64.97;102451.81;5051626;28;11570;-64
2022/05/01 04:05:45;;;;;;;;;25.00;23.00;;;;;7.08;64.68;102447.56;5059497;28;11481;-62
2022/05/01 04:08:12;;;;;;;;;20.50;19.50;;;;;7.06;65.13;102442.34;5063241;28;12191;-65
2022/05/01 04:10:41;;;;;;;;;24.25;20.50;;;;;7.08;64.59;102452.91;5063523;28;11473;-63
2022/05/01 04:13:08;;;;;;;;;21.25;20.25;;;;;7.06;65.01;102447.69;5065200;28;11455;-64
2022/05/01 04:15:36;;;;;;;;;20.50;20.25;;;;;7.05;64.99;102451.38;5071416;28;11514;-64
2022/05/01 04:18:08;;;;;;;;;26.50;21.50;;;;;7.03;65.01;102450.63;5069700;28;11487;-63
2022/05/01 04:20:37;;;;;;;;;25.75;22.25;;;;;7.05;64.80;102451.38;5060504;28;11506;-65
2022/05/01 04:23:04;;;;;;;;;23.75;22.00;;;;;7.04;64.83;102446.13;5070049;28;11485;-65
2022/05/01 04:25:30;;;;;;;;;19.50;19.00;;;;;7.05;65.21;102453.16;5069693;28;11605;-63
2022/05/01 04:28:03;;;;;;;;;24.75;23.25;;;;;7.06;64.77;102452.22;5070280;28;11450;-61
2022/05/01 04:30:31;;;;;;;;;23.75;18.00;;;;;7.08;64.90;102452.91;5071429;28;11619;-62
2022/05/01 04:33:06;;;;;;;;;24.00;23.50;;;;;7.09;64.50;102451.94;5051506;28;11495;-60
2022/05/01 04:35:40;;;;;;;;;19.50;19.50;;;;;7.07;65.23;102457.44;5051287;28;11524;-61
2022/05/01 04:38:09;;;;;;;;;24.25;19.00;;;;;7.09;64.90;102451.94;5060490;28;11470;-61
2022/05/01 04:40:41;;;;;;;;;30.25;19.50;;;;;7.12;64.61;102457.03;5067958;28;11458;-64
2022/05/01 04:43:13;;;;;;;;;26.00;23.00;;;;;7.10;64.58;102451.81;5051373;28;11489;-58
2022/05/01 04:45:41;;;;;;;;;25.50;22.75;;;;;7.13;64.70;102462.28;5059749;28;11478;-59
2022/05/01 04:48:10;;;;;;;;;22.50;21.00;;;;;7.16;65.39;102466.50;5051541;28;12230;-60
2022/05/01 04:50:37;;;;;;;;;19.75;18.50;;;;;7.20;65.10;102459.88;5071278;28;11447;-60
2022/05/01 04:53:06;;;;;;;;;29.25;20.75;;;;;7.23;65.16;102465.00;5073606;28;11444;-62
2022/05/01 04:55:33;;;;;;;;;23.25;17.25;;;;;7.27;65.28;102469.09;5067694;28;11494;-60
2022/05/01 04:58:00;;;;;;;;;23.25;20.00;;;;;7.33;65.17;102467.72;5052468;28;11506;-62
2022/05/01 05:00:26;;;;;;;;;20.00;18.75;;;;;7.42;64.97;102475.81;5065392;28;11462;-62
2022/05/01 05:02:56;;;;;;;;;28.25;23.75;;;;;7.56;65.00;102468.41;5069118;28;11468;-58
2022/05/01 05:05:26;;;;;;;;;23.50;20.25;;;;;7.72;65.04;102471.41;5071612;28;11582;-57
2022/05/01 05:07:53;;;;;;;;;27.25;23.25;;;;;7.88;64.46;102478.97;5071318;28;11437;-60
2022/05/01 05:10:20;;;;;;;;;22.75;20.25;;;;;8.05;64.37;102474.75;5072840;28;11510;-60
2022/05/01 05:12:48;;;;;;;;;23.00;18.50;;;;;8.19;64.24;102482.44;5054442;28;11494;-60
2022/05/01 05:15:16;;;;;;;;;27.75;26.00;;;;;8.30;63.77;102490.34;5067791;28;11468;-64
2022/05/01 05:17:43;;;;;;;;;22.50;21.00;;;;;8.37;64.05;102486.16;5067005;28;11524;-62
2022/05/01 05:20:12;;;;;;;;;22.00;20.25;;;;;8.44;63.74;102483.75;5071387;28;11487;-60
2022/05/01 05:22:42;;;;;;;;;24.25;21.50;;;;;8.52;63.74;102488.44;5069816;28;12131;-59
2022/05/01 05:25:10;;;;;;;;;19.75;16.50;;;;;8.58;63.57;102493.22;5070614;28;11501;-59
2022/05/01 05:27:37;;;;;;;;;22.00;19.75;;;;;8.63;64.20;102488.31;5053544;28;11503;-62
2022/05/01 05:30:04;;;;;;;;;21.00;20.00;;;;;8.70;64.04;102494.78;5060079;28;11470;-61
2022/05/01 05:32:35;;;;;;;;;26.75;25.00;;;;;8.78;64.12;102494.91;5064157;28;11455;-60
2022/05/01 05:35:01;;;;;;;;;22.75;19.25;;;;;8.87;64.17;102496.78;5068874;28;11525;-63
2022/05/01 05:37:28;;;;;;;;;23.25;21.00;;;;;8.96;64.17;102495.06;5069358;28;11455;-60
2022/05/01 05:39:54;;;;;;;;;22.25;19.00;;;;;9.06;64.28;102497.72;5070446;28;12109;-57
2022/05/01 05:42:21;;;;;;;;;22.75;19.25;;;;;9.15;65.27;102494.16;5055987;28;11466;-61
2022/05/01 05:44:47;;;;;;;;;20.75;17.75;;;;;9.25;64.78;102499.53;5055477;28;11514;-62
2022/05/01 05:47:14;;;;;;;;;21.00;19.00;;;;;9.33;64.44;102500.50;5064744;28;11282;-63
2022/05/01 05:49:40;;;;;;;;;17.75;17.75;;;;;9.40;64.70;102495.41;5074140;28;11502;-62
2022/05/01 05:52:07;;;;;;;;;26.00;19.75;;;;;9.45;64.53;102497.66;5069465;28;11173;-61
2022/05/01 05:54:34;;;;;;;;;20.75;20.50;;;;;9.53;65.31;102504.00;5060690;28;11273;-63
2022/05/01 05:57:00;;;;;;;;;21.75;18.50;;;;;9.62;64.91;102507.63;5073054;28;11234;-63
2022/05/01 05:59:27;;;;;;;;;17.50;17.50;;;;;9.68;64.76;102509.72;5073967;28;11184;-59
2022/05/01 06:01:54;;;;;;;;;21.25;19.75;;;;;9.74;64.98;102506.44;5073644;28;10986;-63
2022/05/01 06:04:20;;;;;;;;;22.25;21.75;;;;;9.79;65.06;102506.84;5073682;28;11172;-62
2022/05/01 06:06:47;;;;;;;;;24.75;20.25;;;;;9.83;64.70;102502.88;5063366;28;11204;-62
2022/05/01 06:09:13;;;;;;;;;27.25;26.50;;;;;9.87;65.12;102511.50;5073068;28;11189;-61
2022/05/01 06:11:40;;;;;;;;;17.00;16.00;;;;;9.86;65.00;102509.81;5073048;28;11508;-62
2022/05/01 06:14:06;;;;;;;;;16.00;13.75;;;;;9.90;64.53;102503.13;5069669;28;11089;-63
2022/05/01 06:16:33;;;;;;;;;28.50;24.50;;;;;9.88;65.22;102511.34;5060739;28;10829;-63
2022/05/01 06:18:59;;;;;;;;;22.75;22.25;;;;;9.82;65.93;102511.94;5073588;28;12018;-61
2022/05/01 06:21:26;;;;;;;;;18.50;16.75;;;;;9.76;65.13;102523.28;5069689;28;11241;-62
2022/05/01 06:23:53;;;;;;;;;23.25;21.75;;;;;9.77;65.24;102525.00;5071403;28;10944;-64
2022/05/01 06:26:20;;;;;;;;;18.25;17.50;;;;;9.82;64.92;102522.69;5072234;28;11028;-63
2022/05/01 06:28:52;;;;;;;;;19.00;18.00;;;;;9.87;65.33;102515.03;5071477;28;11905;-65
2022/05/01 06:31:18;;;;;;;;;23.75;21.75;;;;;9.89;64.82;102510.34;5068769;28;11075;-64
2022/05/01 06:33:46;;;;;;;;;14.50;14.50;;;;;9.90;64.79;102514.72;5072480;28;11037;-62
2022/05/01 06:36:16;;;;;;;;;15.00;14.75;;;;;9.96;64.80;102509.75;5072614;28;10988;-63
2022/05/01 06:38:45;;;;;;;;;23.25;21.75;;;;;9.99;65.16;102507.59;5072895;28;10895;-65
2022/05/01 06:41:13;;;;;;;;;24.75;22.50;;;;;9.97;65.01;102506.09;5067033;28;11694;-64
2022/05/01 06:43:40;;;;;;;;;28.00;24.25;;;;;9.96;65.29;102512.44;5055958;28;11065;-65
2022/05/01 06:46:06;;;;;;;;;20.25;18.50;;;;;9.92;65.32;102511.88;5065700;28;11091;-63
2022/05/01 06:48:33;;;;;;;;;19.75;19.25;;;;;9.92;65.42;102514.56;5071584;28;11082;-63
2022/05/01 06:51:00;;;;;;;;;18.25;15.75;;;;;9.93;65.19;102515.44;5071358;28;11124;-65
2022/05/01 06:53:27;;;;;;;;;25.50;23.00;;;;;9.96;65.21;102507.06;5073153;28;10848;-63
2022/05/01 06:55:55;;;;;;;;;30.75;22.00;;;;;9.99;65.31;102512.97;5072357;28;11099;-64
2022/05/01 06:58:22;;;;;;;;;22.00;18.50;;;;;10.07;65.44;102509.56;5072064;28;11034;-64
2022/05/01 07:00:50;;;;;;;;;17.25;17.00;;;;;10.15;65.07;102510.50;5069918;28;10858;-63
2022/05/01 07:03:16;;;;;;;;;18.50;15.25;;;;;10.26;64.50;102511.31;5054845;28;11093;-64
2022/05/01 07:05:43;;;;;;;;;19.25;17.75;;;;;10.32;63.46;102511.53;5067681;28;10869;-62
2022/05/01 07:08:09;;;;;;;;;15.25;15.25;;;;;10.40;63.43;102506.25;5062266;28;11053;-62
2022/05/01 07:10:36;;;;;;;;;13.75;13.75;;;;;10.49;62.88;102504.50;5072631;28;10596;-65
2022/05/01 07:13:03;;;;;;;;;14.25;14.00;;;;;10.57;62.14;102515.38;5067768;28;10533;-63
2022/05/01 07:15:29;;;;;;;;;24.00;22.00;;;;;10.60;61.75;102512.34;5051230;28;10641;-63
2022/05/01 07:17:56;;;;;;;;;23.00;19.25;;;;;10.58;61.91;102500.06;5070707;28;11408;-60
2022/05/01 07:20:22;;;;;;;;;17.50;16.25;;;;;10.63;62.44;102506.66;5057893;28;10670;-64
2022/05/01 07:22:48;;;;;;;;;23.50;19.50;;;;;10.69;60.95;102505.19;5056371;28;10623;-64
2022/05/01 07:25:15;;;;;;;;;22.25;20.75;;;;;10.73;60.67;102503.88;5072214;28;10816;-64
2022/05/01 07:27:41;;;;;;;;;11.25;10.50;;;;;10.81;61.02;102501.25;5071528;28;10845;-64
2022/05/01 07:30:08;;;;;;;;;25.50;23.50;;;;;10.89;60.83;102501.31;5069992;28;11172;-63
2022/05/01 07:32:35;;;;;;;;;25.25;24.50;;;;;10.92;60.50;102502.88;5070332;28;10639;-64
2022/05/01 07:35:01;;;;;;;;;22.00;21.00;;;;;10.92;59.66;102507.41;5071938;28;11067;-65
2022/05/01 07:37:28;;;;;;;;;25.50;21.75;;;;;10.92;60.83;102500.19;5067077;28;10582;-64
2022/05/01 07:39:55;;;;;;;;;20.00;13.75;;;;;10.92;60.56;102512.81;5065775;28;11396;-65
2022/05/01 07:42:24;;;;;;;;;18.75;18.75;;;;;10.99;60.81;102506.63;5066768;28;11307;-65
2022/05/01 07:44:51;;;;;;;;;19.00;19.00;;;;;11.05;60.25;102499.75;5064575;28;10622;-62
2022/05/01 07:47:18;;;;;;;;;18.50;15.00;;;;;11.12;60.32;102498.16;5072621;28;10662;-66
2022/05/01 07:49:44;;;;;;;;;11.00;11.00;;;;;11.28;59.91;102495.56;5090529;28;10449;-66
2022/05/01 07:52:12;;;;;;;;;22.00;16.75;;;;;11.38;57.56;102503.53;5057798;28;10222;-63
2022/05/01 07:54:38;;;;;;;;;15.75;14.25;;;;;11.38;58.12;102503.53;5061721;28;10548;-62
2022/05/01 07:57:08;;;;;;;;;20.00;19.25;;;;;11.46;58.09;102495.50;5068640;28;10561;-64
2022/05/01 07:59:35;;;;;;;;;15.50;14.00;;;;;11.51;58.23;102501.28;5069799;28;10463;-66
2022/05/01 08:02:01;;;;;;;;;16.75;12.25;;;;;11.58;57.32;102498.75;5071010;28;10523;-65
2022/05/01 08:04:28;;;;;;;;;11.00;10.00;;;;;11.66;57.11;102496.09;5067072;28;10417;-63
2022/05/01 08:06:57;;;;;;;;;16.00;14.75;;;;;11.79;55.82;102496.53;5070992;28;10359;-62
2022/05/01 08:09:24;;;;;;;;;16.50;13.00;;;;;11.87;55.98;102484.97;5070771;28;10421;-67
2022/05/01 08:11:51;;;;;;;;;14.25;14.25;;;;;11.92;55.79;102487.16;5060568;28;10338;-66
2022/05/01 08:14:18;;;;;;;;;11.00;8.25;;;;;11.92;55.23;102492.56;5051342;28;10393;-66
2022/05/01 08:16:46;;;;;;;;;13.00;11.50;;;;;11.98;54.86;102489.19;5060218;28;10067;-64
2022/05/01 08:21:57;;;;;;;;;11.50;11.50;;;;;11.94;53.97;102493.22;5051687;28;10954;-61
2022/05/01 08:24:24;;;;;;;;;14.50;9.50;;;;;11.92;53.61;102487.16;5051509;28;11043;-64
2022/05/01 08:26:51;;;;;;;;;6.50;6.50;;;;;11.81;52.34;102485.56;5060109;28;10286;-63
2022/05/01 08:29:17;;;;;;;;;10.00;10.00;;;;;11.77;51.09;102495.84;5070610;28;9988;-64
2022/05/01 08:31:48;;;;;;;;;7.75;7.75;;;;;11.69;51.92;102493.09;5064193;28;10064;-62
2022/05/01 08:34:16;;;;;;;;;11.00;11.00;;;;;11.73;52.58;102493.63;5071016;28;10001;-72
2022/05/01 08:36:45;;;;;;;;;11.50;9.25;;;;;11.82;52.66;102493.50;5070211;28;10404;-62
2022/05/01 08:39:11;;;;;;;;;8.50;6.00;;;;;11.83;51.80;102487.13;5070917;28;10125;-63
2022/05/01 08:41:38;;;;;;;;;5.00;5.00;;;;;11.89;51.45;102488.34;5062876;28;10094;-62
2022/05/01 08:44:05;;;;;;;;;10.75;9.75;;;;;11.90;51.46;102490.00;5060380;28;10114;-64
2022/05/01 08:46:55;;;;;;;;;7.25;7.25;;;;;11.83;49.73;102489.84;5068184;28;10196;-63
2022/05/01 08:49:22;;;;;;;;;9.50;6.00;;;;;11.77;49.91;102493.13;5065630;28;9982;-62
2022/05/01 08:51:51;;;;;;;;;9.75;8.00;;;;;11.72;50.33;102482.00;5060990;28;10076;-63
2022/05/01 08:54:17;;;;;;;;;8.00;6.75;;;;;11.69;50.64;102482.31;5065763;28;10166;-64
2022/05/01 08:56:45;;;;;;;;;9.50;8.00;;;;;11.77;49.89;102479.66;5051185;28;10065;-65
2022/05/01 08:59:14;;;;;;;;;13.00;11.25;;;;;11.75;50.18;102486.19;5050824;28;10153;-64
2022/05/01 09:01:42;;;;;;;;;9.50;9.50;;;;;11.72;49.73;102473.91;5052047;28;10097;-61
2022/05/01 09:04:12;;;;;;;;;7.50;6.00;;;;;11.71;48.82;102487.53;5050750;28;10287;-64
2022/05/01 09:06:43;;;;;;;;;10.00;6.75;;;;;11.67;47.74;102483.47;5054043;28;10042;-63
2022/05/01 09:09:15;;;;;;;;;2.25;2.25;;;;;11.66;48.97;102482.63;5068549;28;10063;-64
2022/05/01 09:14:27;;;;;;;;;7.75;6.00;;;;;11.86;48.71;102485.94;5070469;28;10191;-62
2022/05/01 09:17:19;;;;;;;;;6.50;6.50;;;;;11.87;49.27;102483.09;5063567;28;10189;-62
2022/05/01 09:19:49;;;;;;;;;6.75;6.75;;;;;11.91;49.53;102488.16;5063503;28;10070;-63
2022/05/01 09:22:18;;;;;;;;;9.00;7.25;;;;;11.97;47.85;102484.81;5051954;28;10091;-63
2022/05/01 09:24:44;;;;;;;;;8.00;8.00;;;;;12.00;47.36;102489.91;5065206;28;11045;-66
2022/05/01 09:27:29;;;;;;;;;8.00;7.75;;;;;12.03;48.14;102487.72;5060236;28;10228;-65
2022/05/01 09:30:10;;;;;;;;;7.00;6.25;;;;;12.25;50.01;102494.34;5069223;28;9930;-62
2022/05/01 09:32:40;;;;;;;;;9.50;9.00;;;;;12.37;45.39;102492.19;5057589;28;10076;-63
2022/05/01 09:35:31;;;;;;;;;6.00;6.00;;;;;12.42;45.65;102495.22;5063301;28;10000;-62
2022/05/01 09:38:18;;;;;;;;;9.25;8.25;;;;;12.53;47.42;102494.91;5050448;28;9859;-62
2022/05/01 09:40:47;;;;;;;;;6.50;5.25;;;;;12.59;45.73;102485.28;5050643;28;9893;-66
2022/05/01 09:43:37;;;;;;;;;6.00;6.00;;;;;12.64;45.23;102488.34;5052020;28;10086;-66
2022/05/01 09:46:13;;;;;;;;;5.75;4.50;;;;;12.79;45.69;102502.88;5059905;28;9934;-65
2022/05/01 09:48:42;;;;;;;;;7.75;6.75;;;;;12.80;44.61;102498.31;5056696;28;9937;-66
2022/05/01 09:51:16;;;;;;;;;4.75;4.75;;;;;12.72;45.40;102501.88;5050070;28;9923;-65
2022/05/01 09:53:43;;;;;;;;;5.25;5.25;;;;;12.70;44.79;102498.47;5050130;28;9791;-66
2022/05/01 09:56:10;;;;;;;;;6.00;6.00;;;;;12.72;45.29;102491.06;5049782;28;9871;-67
2022/05/01 09:58:43;;;;;;;;;7.25;6.00;;;;;12.83;44.71;102493.41;5050424;28;9865;-66
2022/05/01 10:01:14;;;;;;;;;8.00;7.00;;;;;12.91;43.86;102495.28;5050458;28;9986;-62
2022/05/01 10:03:43;;;;;;;;;5.25;5.25;;;;;12.96;44.30;102483.94;5064076;28;9828;-67
2022/05/01 10:06:11;;;;;;;;;5.25;3.00;;;;;13.00;44.79;102482.59;5065597;28;9842;-62
2022/05/01 10:08:40;;;;;;;;;11.00;7.50;;;;;13.13;44.43;102482.94;5067845;28;9743;-65
2022/05/01 10:11:09;;;;;;;;;4.75;4.75;;;;;13.23;44.34;102486.31;5069487;28;9845;-65
2022/05/01 10:13:36;;;;;;;;;3.00;3.00;;;;;13.30;44.14;102483.78;5068177;28;9770;-66
2022/05/01 10:16:11;;;;;;;;;5.75;5.00;;;;;13.43;43.50;102475.13;5067760;28;9697;-66
2022/05/01 10:18:47;;;;;;;;;6.50;5.00;;;;;13.40;43.03;102475.47;5066747;28;9965;-66
2022/05/01 10:21:35;;;;;;;;;4.50;4.50;;;;;13.49;43.40;102472.59;5061687;28;9867;-65
2022/05/01 10:24:03;;;;;;;;;6.00;6.00;;;;;13.58;43.38;102473.41;5049372;28;9596;-65
2022/05/01 10:26:34;;;;;;;;;6.25;2.25;;;;;13.69;43.51;102473.00;5049212;28;9687;-65
2022/05/01 10:29:37;;;;;;;;;6.75;6.00;;;;;13.82;43.04;102461.66;5049411;28;9615;-67
2022/05/01 10:32:38;;;;;;;;;6.00;6.00;;;;;13.95;41.55;102458.38;5056137;28;9626;-67
2022/05/01 10:35:46;;;;;;;;;7.00;6.00;;;;;13.97;40.83;102453.59;5073110;28;10412;-66
2022/05/01 10:38:53;;;;;;;;;7.75;7.25;;;;;13.96;41.32;102460.03;5053036;28;9505;-67
2022/05/01 10:41:21;;;;;;;;;5.50;5.50;;;;;13.96;42.31;102460.88;5053137;28;9786;-66
2022/05/01 10:43:56;;;;;;;;;5.00;5.00;;;;;14.15;42.21;102456.06;5053198;28;9666;-66
2022/05/01 10:46:27;;;;;;;;;5.00;5.00;;;;;14.28;41.84;102450.88;5053613;28;9507;-68
2022/05/01 10:48:55;;;;;;;;;3.00;3.00;;;;;14.38;41.40;102446.09;5068097;28;9551;-66
2022/05/01 10:51:30;;;;;;;;;4.67;3.67;;;;;14.44;41.66;102441.81;5071254;28;9468;-66
2022/05/01 10:54:15;;;;;;;;;6.75;4.25;;;;;14.50;41.54;102439.25;5073038;28;9496;-66
2022/05/01 10:56:48;;;;;;;;;7.25;7.25;;;;;14.42;40.75;102431.16;5063317;28;9590;-67
2022/05/01 10:59:39;;;;;;;;;10.50;7.75;;;;;14.27;42.24;102441.09;5052902;28;9761;-66
2022/05/01 11:02:24;;;;;;;;;8.50;8.25;;;;;14.24;43.12;102436.84;5053086;28;9571;-65
2022/05/01 11:04:53;;;;;;;;;10.25;10.25;;;;;14.10;44.37;102434.94;5057077;28;9687;-66
2022/05/01 11:07:21;;;;;;;;;7.75;7.25;;;;;13.97;44.62;102438.19;5065204;28;9747;-67
2022/05/01 11:09:49;;;;;;;;;9.25;9.25;;;;;14.01;44.38;102422.44;5071351;28;9582;-66
2022/05/01 11:12:26;;;;;;;;;4.50;2.00;;;;;14.14;43.68;102416.44;5065730;28;9771;-66
2022/05/01 11:15:03;;;;;;;;;8.00;8.00;;;;;14.30;43.49;102416.31;5057607;28;9680;-66
2022/05/01 11:17:47;;;;;;;;;7.25;6.75;;;;;14.43;43.95;102418.47;5070073;28;9751;-65
2022/05/01 11:20:14;;;;;;;;;6.00;6.00;;;;;14.63;46.41;102414.25;5072406;28;9502;-64
2022/05/01 11:22:44;;;;;;;;;5.50;5.50;;;;;14.79;46.75;102408.69;5067068;28;9746;-65
2022/05/01 11:25:34;;;;;;;;;6.00;6.00;;;;;15.03;45.97;102399.47;5069592;28;9538;-64
2022/05/01 11:28:00;;;;;;;;;9.00;9.00;;;;;14.99;43.69;102397.28;5067235;28;9858;-64
2022/05/01 11:30:27;;;;;;;;;10.75;8.00;;;;;14.95;44.90;102401.41;5072036;28;9821;-65
2022/05/01 11:33:03;;;;;;;;;10.75;8.00;;;;;14.98;43.07;102401.03;5052770;28;9529;-65
2022/05/01 11:35:55;;;;;;;;;10.00;9.75;;;;;14.84;43.28;102392.69;5066002;28;10320;-65
2022/05/01 11:38:44;;;;;;;;;8.00;8.00;;;;;14.90;42.88;102388.41;5063466;28;9742;-66
2022/05/01 11:41:15;;;;;;;;;14.00;10.75;;;;;14.95;43.39;102391.41;5058459;28;9512;-67
2022/05/01 11:43:45;;;;;;;;;11.25;11.25;;;;;14.93;42.91;102384.47;5067660;28;9675;-66
2022/05/01 11:46:18;;;;;;;;;10.00;10.00;;;;;14.79;43.18;102384.28;5066996;28;9504;-69
2022/05/01 11:49:05;;;;;;;;;10.75;10.75;;;;;14.85;43.72;102382.69;5064495;28;9526;-66